sensor_id;sensor_type;location;lat;lon;timestamp;pressure;altitude;pressure_sealevel;temperature;humidity
19751;BME280;4663;49.120;9.730;2023-08-20T00:01:23;98354.88;;;25.63;70.75
19751;BME280;4663;49.120;9.730;2023-08-20T00:03:51;98358.97;;;25.43;71.40
19751;BME280;4663;49.120;9.730;2023-08-20T00:06:17;98356.97;;;25.39;71.46
19751;BME280;4663;49.120;9.730;2023-08-20T00:08:42;98354.78;;;25.24;71.75
19751;BME280;4663;49.120;9.730;2023-08-20T00:11:08;98350.38;;;25.57;70.89
19751;BME280;4663;49.120;9.730;2023-08-20T00:13:33;98359.69;;;25.73;70.48
19751;BME280;4663;49.120;9.730;2023-08-20T00:15:59;98361.22;;;25.47;70.78
19751;BME280;4663;49.120;9.730;2023-08-20T00:18:25;98354.06;;;25.28;71.65
19751;BME280;4663;49.120;9.730;2023-08-20T00:20:52;98363.97;;;25.47;71.27
19751;BME280;4663;49.120;9.730;2023-08-20T00:23:18;98359.41;;;25.52;71.29
19751;BME280;4663;49.120;9.730;2023-08-20T00:25:44;98361.66;;;25.09;71.96
19751;BME280;4663;49.120;9.730;2023-08-20T00:28:10;98359.47;;;25.40;70.96
19751;BME280;4663;49.120;9.730;2023-08-20T00:30:35;98364.34;;;25.04;71.96
19751;BME280;4663;49.120;9.730;2023-08-20T00:33:00;98362.16;;;25.06;72.27
19751;BME280;4663;49.120;9.730;2023-08-20T00:35:26;98365.00;;;24.65;73.41
19751;BME280;4663;49.120;9.730;2023-08-20T00:37:51;98369.22;;;25.02;72.40
19751;BME280;4663;49.120;9.730;2023-08-20T00:40:17;98367.09;;;25.21;71.68
19751;BME280;4663;49.120;9.730;2023-08-20T00:42:42;98368.31;;;25.13;71.54
19751;BME280;4663;49.120;9.730;2023-08-20T00:45:08;98379.03;;;24.98;72.38
19751;BME280;4663;49.120;9.730;2023-08-20T00:47:34;98379.59;;;25.29;71.82
19751;BME280;4663;49.120;9.730;2023-08-20T00:50:01;98380.38;;;25.12;71.57
19751;BME280;4663;49.120;9.730;2023-08-20T00:52:30;98383.81;;;24.90;72.65
19751;BME280;4663;49.120;9.730;2023-08-20T00:54:57;98383.69;;;25.14;72.13
19751;BME280;4663;49.120;9.730;2023-08-20T00:57:23;98380.31;;;25.07;72.14
19751;BME280;4663;49.120;9.730;2023-08-20T00:59:48;98380.56;;;25.23;72.04
19751;BME280;4663;49.120;9.730;2023-08-20T01:02:16;98387.44;;;25.08;72.11
19751;BME280;4663;49.120;9.730;2023-08-20T01:04:42;98388.94;;;24.99;72.51
19751;BME280;4663;49.120;9.730;2023-08-20T01:12:03;98389.38;;;24.78;72.87
19751;BME280;4663;49.120;9.730;2023-08-20T01:14:29;98384.97;;;24.77;73.53
19751;BME280;4663;49.120;9.730;2023-08-20T01:16:54;98387.59;;;25.30;72.47
19751;BME280;4663;49.120;9.730;2023-08-20T01:19:21;98390.81;;;24.81;73.86
19751;BME280;4663;49.120;9.730;2023-08-20T01:22:05;98390.22;;;25.25;71.66
19751;BME280;4663;49.120;9.730;2023-08-20T01:30:08;98385.53;;;25.38;71.45
19751;BME280;4663;49.120;9.730;2023-08-20T01:32:34;98387.09;;;24.87;72.80
19751;BME280;4663;49.120;9.730;2023-08-20T01:35:00;98385.59;;;24.97;73.33
19751;BME280;4663;49.120;9.730;2023-08-20T01:37:25;98382.41;;;25.34;71.39
19751;BME280;4663;49.120;9.730;2023-08-20T01:39:51;98390.59;;;25.46;71.13
19751;BME280;4663;49.120;9.730;2023-08-20T01:42:16;98388.28;;;25.26;71.99
19751;BME280;4663;49.120;9.730;2023-08-20T01:44:41;98392.66;;;25.56;71.34
19751;BME280;4663;49.120;9.730;2023-08-20T01:47:07;98391.75;;;25.33;71.72
19751;BME280;4663;49.120;9.730;2023-08-20T01:49:32;98400.16;;;25.14;72.42
19751;BME280;4663;49.120;9.730;2023-08-20T01:51:57;98390.56;;;25.29;71.66
19751;BME280;4663;49.120;9.730;2023-08-20T01:54:23;98395.84;;;25.18;72.10
19751;BME280;4663;49.120;9.730;2023-08-20T01:56:48;98406.94;;;25.24;71.81
19751;BME280;4663;49.120;9.730;2023-08-20T01:59:13;98401.38;;;25.36;71.29
19751;BME280;4663;49.120;9.730;2023-08-20T02:01:39;98401.56;;;24.71;73.22
19751;BME280;4663;49.120;9.730;2023-08-20T02:04:04;98401.44;;;24.77;73.07
19751;BME280;4663;49.120;9.730;2023-08-20T02:06:30;98403.84;;;24.62;73.72
19751;BME280;4663;49.120;9.730;2023-08-20T02:08:55;98398.44;;;25.08;72.10
19751;BME280;4663;49.120;9.730;2023-08-20T02:11:20;98403.22;;;25.01;71.61
19751;BME280;4663;49.120;9.730;2023-08-20T02:13:46;98400.38;;;24.66;73.15
19751;BME280;4663;49.120;9.730;2023-08-20T02:16:11;98402.50;;;24.23;75.03
19751;BME280;4663;49.120;9.730;2023-08-20T02:18:36;98397.53;;;24.61;73.71
19751;BME280;4663;49.120;9.730;2023-08-20T02:21:02;98406.56;;;24.74;73.28
19751;BME280;4663;49.120;9.730;2023-08-20T02:23:27;98393.13;;;24.60;73.25
19751;BME280;4663;49.120;9.730;2023-08-20T02:25:53;98400.28;;;24.90;72.94
19751;BME280;4663;49.120;9.730;2023-08-20T02:28:18;98406.16;;;24.82;72.73
19751;BME280;4663;49.120;9.730;2023-08-20T02:30:45;98403.94;;;24.79;73.36
19751;BME280;4663;49.120;9.730;2023-08-20T02:33:11;98407.94;;;24.47;73.62
19751;BME280;4663;49.120;9.730;2023-08-20T02:35:37;98401.41;;;24.36;73.87
19751;BME280;4663;49.120;9.730;2023-08-20T02:38:03;98391.97;;;24.85;72.88
19751;BME280;4663;49.120;9.730;2023-08-20T02:40:28;98400.94;;;24.81;72.52
19751;BME280;4663;49.120;9.730;2023-08-20T02:42:54;98399.75;;;24.76;72.81
19751;BME280;4663;49.120;9.730;2023-08-20T02:45:19;98400.38;;;24.66;72.98
19751;BME280;4663;49.120;9.730;2023-08-20T02:47:44;98398.63;;;24.89;72.77
19751;BME280;4663;49.120;9.730;2023-08-20T02:50:10;98396.16;;;25.05;71.78
19751;BME280;4663;49.120;9.730;2023-08-20T02:52:36;98394.56;;;24.92;71.68
19751;BME280;4663;49.120;9.730;2023-08-20T02:55:01;98393.31;;;24.83;72.39
19751;BME280;4663;49.120;9.730;2023-08-20T02:57:28;98400.16;;;24.56;72.88
19751;BME280;4663;49.120;9.730;2023-08-20T02:59:53;98402.78;;;24.75;72.37
19751;BME280;4663;49.120;9.730;2023-08-20T03:02:19;98401.47;;;24.65;72.46
19751;BME280;4663;49.120;9.730;2023-08-20T03:04:44;98394.28;;;24.35;73.36
19751;BME280;4663;49.120;9.730;2023-08-20T03:07:09;98393.25;;;24.12;74.11
19751;BME280;4663;49.120;9.730;2023-08-20T03:09:35;98389.84;;;24.34;73.58
19751;BME280;4663;49.120;9.730;2023-08-20T03:12:00;98383.94;;;24.66;72.15
19751;BME280;4663;49.120;9.730;2023-08-20T03:14:26;98380.38;;;24.66;72.57
19751;BME280;4663;49.120;9.730;2023-08-20T03:16:51;98387.44;;;24.50;72.73
19751;BME280;4663;49.120;9.730;2023-08-20T03:19:17;98380.13;;;24.68;72.50
19751;BME280;4663;49.120;9.730;2023-08-20T03:21:43;98389.69;;;24.41;73.14
19751;BME280;4663;49.120;9.730;2023-08-20T03:24:08;98380.66;;;24.40;72.74
19751;BME280;4663;49.120;9.730;2023-08-20T03:26:33;98378.56;;;24.19;73.45
19751;BME280;4663;49.120;9.730;2023-08-20T03:28:59;98380.44;;;24.42;72.77
19751;BME280;4663;49.120;9.730;2023-08-20T03:31:24;98380.84;;;24.51;72.96
19751;BME280;4663;49.120;9.730;2023-08-20T03:33:50;98375.75;;;24.54;72.51
19751;BME280;4663;49.120;9.730;2023-08-20T03:36:15;98380.28;;;24.49;72.49
19751;BME280;4663;49.120;9.730;2023-08-20T03:38:41;98381.16;;;24.37;72.95
19751;BME280;4663;49.120;9.730;2023-08-20T03:41:06;98374.38;;;24.28;73.22
19751;BME280;4663;49.120;9.730;2023-08-20T03:43:31;98373.31;;;24.29;73.17
19751;BME280;4663;49.120;9.730;2023-08-20T03:45:57;98380.19;;;24.44;72.83
19751;BME280;4663;49.120;9.730;2023-08-20T03:48:22;98389.38;;;24.37;72.74
19751;BME280;4663;49.120;9.730;2023-08-20T03:50:47;98389.88;;;24.22;73.37
19751;BME280;4663;49.120;9.730;2023-08-20T03:53:13;98389.69;;;24.41;72.78
19751;BME280;4663;49.120;9.730;2023-08-20T03:55:38;98402.88;;;23.79;74.40
19751;BME280;4663;49.120;9.730;2023-08-20T03:58:03;98406.81;;;23.71;75.04
19751;BME280;4663;49.120;9.730;2023-08-20T04:00:29;98405.13;;;23.82;74.20
19751;BME280;4663;49.120;9.730;2023-08-20T04:02:54;98406.22;;;23.81;74.59
19751;BME280;4663;49.120;9.730;2023-08-20T04:05:20;98419.41;;;23.18;75.44
19751;BME280;4663;49.120;9.730;2023-08-20T04:07:46;98419.97;;;23.38;75.58
19751;BME280;4663;49.120;9.730;2023-08-20T04:10:11;98418.34;;;23.85;74.01
19751;BME280;4663;49.120;9.730;2023-08-20T04:12:36;98427.84;;;23.71;74.23
19751;BME280;4663;49.120;9.730;2023-08-20T04:15:02;98422.63;;;23.81;74.03
19751;BME280;4663;49.120;9.730;2023-08-20T04:17:28;98422.88;;;23.68;74.17
19751;BME280;4663;49.120;9.730;2023-08-20T04:19:53;98422.88;;;23.80;73.86
19751;BME280;4663;49.120;9.730;2023-08-20T04:22:18;98421.47;;;24.01;73.44
19751;BME280;4663;49.120;9.730;2023-08-20T04:24:44;98420.47;;;23.83;74.11
19751;BME280;4663;49.120;9.730;2023-08-20T04:27:09;98416.81;;;23.89;73.24
19751;BME280;4663;49.120;9.730;2023-08-20T04:29:34;98421.53;;;23.46;74.90
19751;BME280;4663;49.120;9.730;2023-08-20T04:32:00;98423.16;;;23.35;75.44
19751;BME280;4663;49.120;9.730;2023-08-20T04:34:25;98419.38;;;23.48;75.31
19751;BME280;4663;49.120;9.730;2023-08-20T04:36:50;98425.63;;;23.25;76.35
19751;BME280;4663;49.120;9.730;2023-08-20T04:39:18;98418.81;;;23.58;74.88
19751;BME280;4663;49.120;9.730;2023-08-20T04:41:43;98423.53;;;23.39;75.55
19751;BME280;4663;49.120;9.730;2023-08-20T04:44:09;98421.78;;;23.57;75.51
19751;BME280;4663;49.120;9.730;2023-08-20T04:46:34;98422.75;;;23.62;74.69
19751;BME280;4663;49.120;9.730;2023-08-20T04:49:00;98419.28;;;23.55;75.05
19751;BME280;4663;49.120;9.730;2023-08-20T04:51:25;98415.34;;;23.51;75.54
19751;BME280;4663;49.120;9.730;2023-08-20T04:53:51;98415.59;;;23.73;74.93
19751;BME280;4663;49.120;9.730;2023-08-20T04:56:17;98422.97;;;23.85;74.79
19751;BME280;4663;49.120;9.730;2023-08-20T04:58:44;98424.75;;;23.55;75.12
19751;BME280;4663;49.120;9.730;2023-08-20T05:01:09;98424.25;;;23.34;75.95
19751;BME280;4663;49.120;9.730;2023-08-20T05:03:34;98429.84;;;23.09;76.64
19751;BME280;4663;49.120;9.730;2023-08-20T05:06:00;98429.75;;;22.85;77.68
19751;BME280;4663;49.120;9.730;2023-08-20T05:08:25;98428.94;;;22.84;77.35
19751;BME280;4663;49.120;9.730;2023-08-20T05:10:50;98423.19;;;22.74;77.48
19751;BME280;4663;49.120;9.730;2023-08-20T05:13:17;98425.41;;;22.96;76.76
19751;BME280;4663;49.120;9.730;2023-08-20T05:15:42;98416.22;;;23.63;74.71
19751;BME280;4663;49.120;9.730;2023-08-20T05:18:08;98421.13;;;23.97;73.77
19751;BME280;4663;49.120;9.730;2023-08-20T05:20:33;98429.72;;;23.04;76.19
19751;BME280;4663;49.120;9.730;2023-08-20T05:22:58;98425.22;;;23.09;76.73
19751;BME280;4663;49.120;9.730;2023-08-20T05:25:24;98427.03;;;22.85;77.38
19751;BME280;4663;49.120;9.730;2023-08-20T05:27:49;98424.78;;;23.91;74.72
19751;BME280;4663;49.120;9.730;2023-08-20T05:30:15;98434.28;;;23.22;76.39
19751;BME280;4663;49.120;9.730;2023-08-20T05:32:40;98431.69;;;24.18;74.09
19751;BME280;4663;49.120;9.730;2023-08-20T05:35:05;98444.78;;;22.94;77.84
19751;BME280;4663;49.120;9.730;2023-08-20T05:37:31;98445.06;;;23.35;76.86
19751;BME280;4663;49.120;9.730;2023-08-20T05:39:56;98442.59;;;24.65;73.14
19751;BME280;4663;49.120;9.730;2023-08-20T05:42:22;98454.22;;;23.10;76.83
19751;BME280;4663;49.120;9.730;2023-08-20T05:44:47;98445.38;;;23.70;75.63
19751;BME280;4663;49.120;9.730;2023-08-20T05:47:12;98455.59;;;23.20;77.08
19751;BME280;4663;49.120;9.730;2023-08-20T05:49:38;98448.81;;;24.37;74.37
19751;BME280;4663;49.120;9.730;2023-08-20T05:52:03;98455.28;;;24.84;72.52
19751;BME280;4663;49.120;9.730;2023-08-20T05:54:29;98451.41;;;23.48;75.82
19751;BME280;4663;49.120;9.730;2023-08-20T05:56:54;98452.16;;;24.27;74.73
19751;BME280;4663;49.120;9.730;2023-08-20T05:59:19;98457.22;;;24.18;74.16
19751;BME280;4663;49.120;9.730;2023-08-20T06:01:45;98462.50;;;24.73;72.51
19751;BME280;4663;49.120;9.730;2023-08-20T06:04:10;98461.28;;;24.57;73.40
19751;BME280;4663;49.120;9.730;2023-08-20T06:06:36;98458.66;;;25.78;71.40
19751;BME280;4663;49.120;9.730;2023-08-20T06:09:01;98455.25;;;28.10;65.46
19751;BME280;4663;49.120;9.730;2023-08-20T06:11:26;98456.88;;;27.35;65.92
19751;BME280;4663;49.120;9.730;2023-08-20T06:13:52;98449.56;;;28.28;63.26
19751;BME280;4663;49.120;9.730;2023-08-20T06:16:17;98439.84;;;28.63;63.96
19751;BME280;4663;49.120;9.730;2023-08-20T06:18:43;98434.38;;;30.50;59.61
19751;BME280;4663;49.120;9.730;2023-08-20T06:21:08;98438.41;;;29.76;60.65
19751;BME280;4663;49.120;9.730;2023-08-20T06:23:34;98442.16;;;30.38;59.56
19751;BME280;4663;49.120;9.730;2023-08-20T06:25:59;98444.69;;;32.10;56.73
19751;BME280;4663;49.120;9.730;2023-08-20T06:28:24;98447.34;;;31.21;57.81
19751;BME280;4663;49.120;9.730;2023-08-20T06:30:50;98459.00;;;31.18;58.42
19751;BME280;4663;49.120;9.730;2023-08-20T06:33:15;98458.34;;;30.86;59.15
19751;BME280;4663;49.120;9.730;2023-08-20T06:35:40;98451.66;;;32.56;56.75
19751;BME280;4663;49.120;9.730;2023-08-20T06:38:07;98459.94;;;31.43;57.41
19751;BME280;4663;49.120;9.730;2023-08-20T06:40:32;98464.34;;;29.44;61.13
19751;BME280;4663;49.120;9.730;2023-08-20T06:42:58;98474.72;;;28.95;63.62
19751;BME280;4663;49.120;9.730;2023-08-20T06:45:23;98485.41;;;28.28;64.06
19751;BME280;4663;49.120;9.730;2023-08-20T06:47:48;98493.09;;;29.59;62.14
19751;BME280;4663;49.120;9.730;2023-08-20T06:50:14;98482.03;;;31.53;58.35
19751;BME280;4663;49.120;9.730;2023-08-20T06:52:39;98471.41;;;32.01;57.99
19751;BME280;4663;49.120;9.730;2023-08-20T06:55:05;98477.06;;;30.18;60.39
19751;BME280;4663;49.120;9.730;2023-08-20T06:57:30;98491.19;;;29.64;61.47
19751;BME280;4663;49.120;9.730;2023-08-20T06:59:56;98479.84;;;30.13;61.45
19751;BME280;4663;49.120;9.730;2023-08-20T07:02:22;98490.69;;;28.88;63.79
19751;BME280;4663;49.120;9.730;2023-08-20T07:04:47;98472.66;;;30.17;61.60
19751;BME280;4663;49.120;9.730;2023-08-20T07:07:13;98485.59;;;30.37;61.89
19751;BME280;4663;49.120;9.730;2023-08-20T07:09:40;98484.66;;;30.78;61.28
19751;BME280;4663;49.120;9.730;2023-08-20T07:12:05;98480.94;;;29.55;61.54
19751;BME280;4663;49.120;9.730;2023-08-20T07:14:30;98483.63;;;30.43;61.33
19751;BME280;4663;49.120;9.730;2023-08-20T07:16:56;98486.47;;;29.91;61.75
19751;BME280;4663;49.120;9.730;2023-08-20T07:19:21;98475.94;;;31.11;60.66
19751;BME280;4663;49.120;9.730;2023-08-20T07:21:47;98481.94;;;30.63;60.55
19751;BME280;4663;49.120;9.730;2023-08-20T07:24:12;98478.97;;;30.33;60.90
19751;BME280;4663;49.120;9.730;2023-08-20T07:26:38;98485.69;;;30.93;59.17
19751;BME280;4663;49.120;9.730;2023-08-20T07:29:03;98485.19;;;32.60;57.99
19751;BME280;4663;49.120;9.730;2023-08-20T07:31:31;98486.41;;;33.22;56.45
19751;BME280;4663;49.120;9.730;2023-08-20T07:33:58;98495.13;;;32.12;58.53
19751;BME280;4663;49.120;9.730;2023-08-20T07:36:24;98488.97;;;30.19;61.85
19751;BME280;4663;49.120;9.730;2023-08-20T07:38:51;98492.34;;;32.42;57.71
19751;BME280;4663;49.120;9.730;2023-08-20T07:41:17;98492.69;;;30.75;61.13
19751;BME280;4663;49.120;9.730;2023-08-20T07:43:43;98494.84;;;30.88;60.58
19751;BME280;4663;49.120;9.730;2023-08-20T07:46:09;98490.19;;;32.39;58.61
19751;BME280;4663;49.120;9.730;2023-08-20T07:48:35;98484.53;;;34.36;55.74
19751;BME280;4663;49.120;9.730;2023-08-20T07:51:01;98494.25;;;30.97;60.40
19751;BME280;4663;49.120;9.730;2023-08-20T07:53:27;98492.19;;;31.98;59.15
19751;BME280;4663;49.120;9.730;2023-08-20T07:55:59;98485.19;;;32.60;57.14
19751;BME280;4663;49.120;9.730;2023-08-20T07:58:24;98490.28;;;31.99;58.98
19751;BME280;4663;49.120;9.730;2023-08-20T08:00:55;98496.84;;;32.38;58.49
19751;BME280;4663;49.120;9.730;2023-08-20T08:03:20;98496.50;;;31.85;58.78
19751;BME280;4663;49.120;9.730;2023-08-20T08:05:50;98502.59;;;32.71;57.97
19751;BME280;4663;49.120;9.730;2023-08-20T08:08:17;98500.97;;;32.11;58.45
19751;BME280;4663;49.120;9.730;2023-08-20T08:10:43;98511.06;;;32.31;59.02
19751;BME280;4663;49.120;9.730;2023-08-20T08:13:12;98498.97;;;33.14;57.46
19751;BME280;4663;49.120;9.730;2023-08-20T08:15:38;98507.06;;;31.43;59.28
19751;BME280;4663;49.120;9.730;2023-08-20T08:18:03;98507.44;;;31.71;59.02
19751;BME280;4663;49.120;9.730;2023-08-20T08:20:29;98503.88;;;32.54;57.65
19751;BME280;4663;49.120;9.730;2023-08-20T08:22:54;98509.38;;;34.33;56.70
19751;BME280;4663;49.120;9.730;2023-08-20T08:25:20;98502.16;;;32.83;57.20
19751;BME280;4663;49.120;9.730;2023-08-20T08:27:45;98508.47;;;33.71;58.37
19751;BME280;4663;49.120;9.730;2023-08-20T08:30:11;98513.28;;;33.46;57.16
19751;BME280;4663;49.120;9.730;2023-08-20T08:32:37;98520.88;;;33.93;56.59
19751;BME280;4663;49.120;9.730;2023-08-20T08:35:02;98509.13;;;33.62;57.08
19751;BME280;4663;49.120;9.730;2023-08-20T08:37:27;98510.22;;;34.14;56.43
19751;BME280;4663;49.120;9.730;2023-08-20T08:39:53;98501.66;;;33.00;56.39
19751;BME280;4663;49.120;9.730;2023-08-20T08:42:22;98505.75;;;34.46;56.46
19751;BME280;4663;49.120;9.730;2023-08-20T08:44:50;98504.47;;;36.05;52.28
19751;BME280;4663;49.120;9.730;2023-08-20T08:47:16;98505.88;;;34.41;55.33
19751;BME280;4663;49.120;9.730;2023-08-20T08:49:44;98500.72;;;34.62;54.43
19751;BME280;4663;49.120;9.730;2023-08-20T08:52:10;98512.19;;;33.99;55.85
19751;BME280;4663;49.120;9.730;2023-08-20T08:54:36;98513.00;;;34.47;54.34
19751;BME280;4663;49.120;9.730;2023-08-20T08:57:01;98505.19;;;33.30;55.38
19751;BME280;4663;49.120;9.730;2023-08-20T08:59:27;98500.78;;;33.82;55.01
19751;BME280;4663;49.120;9.730;2023-08-20T09:01:52;98504.31;;;33.49;55.65
19751;BME280;4663;49.120;9.730;2023-08-20T09:04:19;98507.63;;;33.51;55.36
19751;BME280;4663;49.120;9.730;2023-08-20T09:06:52;98507.91;;;34.35;54.90
19751;BME280;4663;49.120;9.730;2023-08-20T09:09:18;98498.34;;;34.98;53.48
19751;BME280;4663;49.120;9.730;2023-08-20T09:11:44;98504.16;;;34.12;54.53
19751;BME280;4663;49.120;9.730;2023-08-20T09:14:30;98510.81;;;35.00;53.89
19751;BME280;4663;49.120;9.730;2023-08-20T09:16:59;98506.28;;;34.34;55.34
19751;BME280;4663;49.120;9.730;2023-08-20T09:19:28;98509.97;;;35.00;53.10
19751;BME280;4663;49.120;9.730;2023-08-20T09:21:54;98511.25;;;34.04;54.38
19751;BME280;4663;49.120;9.730;2023-08-20T09:24:40;98515.72;;;33.09;56.43
19751;BME280;4663;49.120;9.730;2023-08-20T09:27:09;98505.44;;;32.06;56.92
19751;BME280;4663;49.120;9.730;2023-08-20T09:32:17;98498.63;;;35.24;53.63
19751;BME280;4663;49.120;9.730;2023-08-20T09:34:43;98516.84;;;33.08;56.02
19751;BME280;4663;49.120;9.730;2023-08-20T09:37:13;98514.13;;;32.29;56.96
19751;BME280;4663;49.120;9.730;2023-08-20T09:39:39;98509.28;;;33.52;55.10
19751;BME280;4663;49.120;9.730;2023-08-20T09:42:05;98505.88;;;34.83;53.30
19751;BME280;4663;49.120;9.730;2023-08-20T09:44:35;98510.13;;;33.72;56.39
19751;BME280;4663;49.120;9.730;2023-08-20T09:47:12;98517.88;;;33.56;55.94
19751;BME280;4663;49.120;9.730;2023-08-20T09:49:40;98519.91;;;31.68;58.66
19751;BME280;4663;49.120;9.730;2023-08-20T09:52:07;98505.22;;;33.06;55.81
19751;BME280;4663;49.120;9.730;2023-08-20T09:55:09;98512.88;;;34.24;54.78
19751;BME280;4663;49.120;9.730;2023-08-20T09:57:36;98509.38;;;35.03;53.78
19751;BME280;4663;49.120;9.730;2023-08-20T10:00:04;98513.34;;;33.41;56.34
19751;BME280;4663;49.120;9.730;2023-08-20T10:02:40;98508.81;;;33.83;54.52
19751;BME280;4663;49.120;9.730;2023-08-20T10:05:06;98508.53;;;34.46;53.82
19751;BME280;4663;49.120;9.730;2023-08-20T10:07:32;98519.34;;;34.20;55.27
19751;BME280;4663;49.120;9.730;2023-08-20T10:10:01;98508.16;;;34.81;52.76
19751;BME280;4663;49.120;9.730;2023-08-20T10:12:27;98507.41;;;34.00;53.43
19751;BME280;4663;49.120;9.730;2023-08-20T10:14:54;98520.34;;;32.70;55.82
19751;BME280;4663;49.120;9.730;2023-08-20T10:17:22;98505.44;;;34.48;53.94
19751;BME280;4663;49.120;9.730;2023-08-20T10:19:47;98506.72;;;34.56;54.12
19751;BME280;4663;49.120;9.730;2023-08-20T10:22:13;98508.84;;;34.59;54.03
19751;BME280;4663;49.120;9.730;2023-08-20T10:24:47;98495.94;;;34.35;52.63
19751;BME280;4663;49.120;9.730;2023-08-20T10:27:24;98499.25;;;32.93;55.61
19751;BME280;4663;49.120;9.730;2023-08-20T10:29:52;98498.03;;;34.29;53.08
19751;BME280;4663;49.120;9.730;2023-08-20T10:32:18;98499.25;;;34.23;53.57
19751;BME280;4663;49.120;9.730;2023-08-20T10:34:50;98497.94;;;33.68;53.74
19751;BME280;4663;49.120;9.730;2023-08-20T10:37:26;98507.09;;;34.49;53.38
19751;BME280;4663;49.120;9.730;2023-08-20T10:39:54;98495.97;;;33.87;53.40
19751;BME280;4663;49.120;9.730;2023-08-20T10:45:04;98481.03;;;34.87;50.99
19751;BME280;4663;49.120;9.730;2023-08-20T10:47:46;98493.00;;;34.73;51.92
19751;BME280;4663;49.120;9.730;2023-08-20T10:50:16;98485.38;;;34.79;51.06
19751;BME280;4663;49.120;9.730;2023-08-20T10:52:50;98484.53;;;34.64;51.37
19751;BME280;4663;49.120;9.730;2023-08-20T10:55:17;98501.84;;;35.18;52.16
19751;BME280;4663;49.120;9.730;2023-08-20T10:57:54;98482.28;;;35.69;49.05
19751;BME280;4663;49.120;9.730;2023-08-20T11:00:20;98486.28;;;34.60;50.70
19751;BME280;4663;49.120;9.730;2023-08-20T11:02:46;98488.56;;;33.97;51.75
19751;BME280;4663;49.120;9.730;2023-08-20T11:05:20;98482.25;;;34.95;51.33
19751;BME280;4663;49.120;9.730;2023-08-20T11:07:47;98482.88;;;34.63;50.74
19751;BME280;4663;49.120;9.730;2023-08-20T11:10:17;98487.28;;;34.93;50.91
19751;BME280;4663;49.120;9.730;2023-08-20T11:12:46;98485.88;;;33.92;51.65
19751;BME280;4663;49.120;9.730;2023-08-20T11:15:12;98486.47;;;34.22;51.92
19751;BME280;4663;49.120;9.730;2023-08-20T11:17:45;98483.69;;;35.43;50.92
19751;BME280;4663;49.120;9.730;2023-08-20T11:20:14;98485.66;;;34.63;51.42
19751;BME280;4663;49.120;9.730;2023-08-20T11:22:40;98482.47;;;34.56;51.66
19751;BME280;4663;49.120;9.730;2023-08-20T11:25:11;98478.88;;;34.70;51.29
19751;BME280;4663;49.120;9.730;2023-08-20T11:27:40;98479.91;;;34.46;51.91
19751;BME280;4663;49.120;9.730;2023-08-20T11:30:07;98479.91;;;34.74;51.23
19751;BME280;4663;49.120;9.730;2023-08-20T11:32:33;98482.50;;;33.23;54.20
19751;BME280;4663;49.120;9.730;2023-08-20T11:34:58;98488.81;;;33.29;54.24
19751;BME280;4663;49.120;9.730;2023-08-20T11:37:24;98477.84;;;32.94;54.36
19751;BME280;4663;49.120;9.730;2023-08-20T11:39:50;98481.63;;;33.80;54.45
19751;BME280;4663;49.120;9.730;2023-08-20T11:42:16;98474.09;;;35.35;52.24
19751;BME280;4663;49.120;9.730;2023-08-20T11:44:46;98475.53;;;34.96;52.58
19751;BME280;4663;49.120;9.730;2023-08-20T11:47:16;98470.59;;;35.66;50.54
19751;BME280;4663;49.120;9.730;2023-08-20T11:49:42;98473.81;;;34.44;51.97
19751;BME280;4663;49.120;9.730;2023-08-20T11:52:07;98472.28;;;34.23;53.12
19751;BME280;4663;49.120;9.730;2023-08-20T11:54:33;98473.94;;;34.67;52.58
19751;BME280;4663;49.120;9.730;2023-08-20T11:57:02;98471.25;;;35.49;50.70
19751;BME280;4663;49.120;9.730;2023-08-20T11:59:28;98470.88;;;35.05;51.15
19751;BME280;4663;49.120;9.730;2023-08-20T12:02:02;98462.75;;;34.95;52.08
19751;BME280;4663;49.120;9.730;2023-08-20T12:04:30;98460.50;;;34.55;51.94
19751;BME280;4663;49.120;9.730;2023-08-20T12:07:13;98463.09;;;35.30;51.49
19751;BME280;4663;49.120;9.730;2023-08-20T12:09:38;98458.72;;;35.38;51.76
19751;BME280;4663;49.120;9.730;2023-08-20T12:12:06;98452.69;;;34.43;54.03
19751;BME280;4663;49.120;9.730;2023-08-20T12:14:31;98449.75;;;34.90;52.29
19751;BME280;4663;49.120;9.730;2023-08-20T12:16:57;98449.38;;;34.40;53.00
19751;BME280;4663;49.120;9.730;2023-08-20T12:19:24;98448.13;;;34.89;52.14
19751;BME280;4663;49.120;9.730;2023-08-20T12:21:49;98448.13;;;34.89;52.35
19751;BME280;4663;49.120;9.730;2023-08-20T12:24:15;98442.06;;;35.24;52.04
19751;BME280;4663;49.120;9.730;2023-08-20T12:26:41;98439.16;;;34.78;52.56
19751;BME280;4663;49.120;9.730;2023-08-20T12:29:07;98444.16;;;35.04;52.39
19751;BME280;4663;49.120;9.730;2023-08-20T12:31:33;98441.66;;;35.16;52.58
19751;BME280;4663;49.120;9.730;2023-08-20T12:33:59;98450.28;;;35.98;51.91
19751;BME280;4663;49.120;9.730;2023-08-20T12:36:25;98440.81;;;35.30;53.07
19751;BME280;4663;49.120;9.730;2023-08-20T12:38:50;98441.13;;;34.77;53.64
19751;BME280;4663;49.120;9.730;2023-08-20T12:41:15;98426.59;;;34.67;53.41
19751;BME280;4663;49.120;9.730;2023-08-20T12:43:41;98428.94;;;35.24;52.61
19751;BME280;4663;49.120;9.730;2023-08-20T12:46:07;98426.81;;;35.07;52.50
19751;BME280;4663;49.120;9.730;2023-08-20T12:48:32;98436.25;;;35.57;51.96
19751;BME280;4663;49.120;9.730;2023-08-20T12:50:58;98432.81;;;35.37;52.00
19751;BME280;4663;49.120;9.730;2023-08-20T12:53:23;98429.47;;;35.72;51.05
19751;BME280;4663;49.120;9.730;2023-08-20T12:55:49;98432.16;;;36.09;50.53
19751;BME280;4663;49.120;9.730;2023-08-20T12:58:14;98429.75;;;35.48;50.88
19751;BME280;4663;49.120;9.730;2023-08-20T13:00:39;98426.78;;;35.21;51.41
19751;BME280;4663;49.120;9.730;2023-08-20T13:03:05;98413.13;;;36.69;49.42
19751;BME280;4663;49.120;9.730;2023-08-20T13:05:31;98434.41;;;36.48;51.03
19751;BME280;4663;49.120;9.730;2023-08-20T13:07:57;98418.63;;;35.48;51.30
19751;BME280;4663;49.120;9.730;2023-08-20T13:10:23;98418.59;;;35.93;50.97
19751;BME280;4663;49.120;9.730;2023-08-20T13:12:51;98418.56;;;35.16;50.80
19751;BME280;4663;49.120;9.730;2023-08-20T13:15:19;98419.28;;;34.43;51.86
19751;BME280;4663;49.120;9.730;2023-08-20T13:17:47;98426.72;;;35.81;52.38
19751;BME280;4663;49.120;9.730;2023-08-20T13:20:13;98421.16;;;35.35;53.15
19751;BME280;4663;49.120;9.730;2023-08-20T13:22:39;98409.56;;;34.12;52.32